createdAt,value
2022-08-19T00:01:00.828Z,1
2022-08-19T00:02:44.541Z,1
2022-08-19T00:04:28.233Z,1
2022-08-19T00:06:11.935Z,1
2022-08-19T00:07:55.646Z,1
2022-08-19T00:09:39.340Z,0
2022-08-19T00:11:23.048Z,1
2022-08-19T00:13:06.755Z,1
2022-08-19T00:14:50.449Z,0
2022-08-19T00:16:34.151Z,1
2022-08-19T00:18:17.853Z,1
2022-08-19T00:20:01.558Z,1
2022-08-19T00:21:45.270Z,1
2022-08-19T00:23:28.957Z,0
2022-08-19T00:25:12.660Z,1
2022-08-19T00:26:56.365Z,1
2022-08-19T00:28:40.062Z,1
2022-08-19T00:30:23.769Z,1
2022-08-19T00:32:07.476Z,0
2022-08-19T00:33:51.180Z,1
2022-08-19T00:35:34.877Z,1
2022-08-19T00:37:18.574Z,1
2022-08-19T00:39:02.280Z,1
2022-08-19T00:40:45.985Z,1
2022-08-19T00:42:29.676Z,0
2022-08-19T00:44:13.383Z,1
2022-08-19T00:45:57.095Z,1
2022-08-19T00:47:40.783Z,0
2022-08-19T00:49:24.491Z,1
2022-08-19T00:51:08.191Z,1
2022-08-19T00:52:51.889Z,0
2022-08-19T00:54:35.601Z,1
2022-08-19T00:56:19.293Z,2
2022-08-19T00:58:03.015Z,1
2022-08-19T00:59:46.701Z,1
2022-08-19T01:01:30.412Z,2
2022-08-19T01:03:14.102Z,0
2022-08-19T01:04:57.810Z,1
2022-08-19T01:06:41.553Z,1
2022-08-19T01:08:25.206Z,1
2022-08-19T01:10:08.929Z,1
2022-08-19T01:11:52.627Z,1
2022-08-19T01:13:36.353Z,0
2022-08-19T01:15:20.018Z,1
2022-08-19T01:17:03.734Z,1
2022-08-19T01:18:47.423Z,1
2022-08-19T01:20:31.122Z,0
2022-08-19T01:22:14.823Z,1
2022-08-19T01:23:58.532Z,1
2022-08-19T01:25:42.228Z,1
2022-08-19T01:27:25.936Z,1
2022-08-19T01:29:09.635Z,0
2022-08-19T01:30:53.334Z,1
2022-08-19T01:32:37.034Z,1
2022-08-19T01:34:20.736Z,1
2022-08-19T01:36:04.441Z,1
2022-08-19T01:37:48.149Z,1
2022-08-19T01:39:31.842Z,1
2022-08-19T01:41:15.545Z,2
2022-08-19T01:42:59.243Z,1
2022-08-19T01:44:42.953Z,1
2022-08-19T01:46:26.652Z,1
2022-08-19T01:48:10.353Z,1
2022-08-19T01:49:54.069Z,1
2022-08-19T01:51:37.756Z,1
2022-08-19T01:53:21.456Z,0
2022-08-19T01:55:05.159Z,0
2022-08-19T01:56:48.859Z,0
2022-08-19T01:58:32.566Z,1
2022-08-19T02:00:16.271Z,1
2022-08-19T02:01:59.967Z,0
2022-08-19T02:03:43.669Z,1
2022-08-19T02:05:27.388Z,1
2022-08-19T02:07:11.074Z,1
2022-08-19T02:08:54.781Z,0
2022-08-19T02:10:38.486Z,1
2022-08-19T02:12:22.192Z,1
2022-08-19T02:14:05.888Z,1
2022-08-19T02:15:49.579Z,0
2022-08-19T02:17:33.287Z,1
2022-08-19T02:19:16.992Z,1
2022-08-19T02:21:00.686Z,1
2022-08-19T02:22:44.392Z,0
2022-08-19T02:24:28.095Z,1
2022-08-19T02:26:11.789Z,0
2022-08-19T02:27:55.502Z,1
2022-08-19T02:29:39.205Z,1
2022-08-19T02:31:22.914Z,0
2022-08-19T02:33:06.600Z,0
2022-08-19T02:34:50.311Z,1
2022-08-19T02:36:34.012Z,0
2022-08-19T02:38:17.713Z,0
2022-08-19T02:40:01.410Z,0
2022-08-19T02:41:45.116Z,1
2022-08-19T02:43:28.821Z,0
2022-08-19T02:45:12.517Z,1
2022-08-19T02:46:56.237Z,0
2022-08-19T02:48:39.932Z,1
2022-08-19T02:50:23.628Z,1
2022-08-19T02:52:07.337Z,1
2022-08-19T02:53:51.030Z,1
2022-08-19T02:55:34.735Z,1
2022-08-19T02:57:18.435Z,1
2022-08-19T02:59:02.133Z,1
2022-08-19T03:00:45.848Z,1
2022-08-19T03:02:29.541Z,1
2022-08-19T03:04:13.250Z,1
2022-08-19T03:05:56.962Z,0
2022-08-19T03:07:40.649Z,0
2022-08-19T03:09:24.358Z,1
2022-08-19T03:11:08.055Z,0
2022-08-19T03:12:51.747Z,1
2022-08-19T03:14:35.455Z,1
2022-08-19T03:16:19.160Z,1
2022-08-19T03:18:02.873Z,0
2022-08-19T03:19:46.563Z,0
2022-08-19T03:21:30.264Z,1
2022-08-19T03:23:13.968Z,0
2022-08-19T03:24:57.670Z,1
2022-08-19T03:26:41.371Z,1
2022-08-19T03:28:25.071Z,1
2022-08-19T03:30:08.775Z,0
2022-08-19T03:31:52.476Z,1
2022-08-19T03:33:36.176Z,1
2022-08-19T03:35:19.872Z,1
2022-08-19T03:37:03.577Z,1
2022-08-19T03:38:47.284Z,0
2022-08-19T03:40:30.979Z,1
2022-08-19T03:42:14.687Z,1
2022-08-19T03:43:58.389Z,0
2022-08-19T03:45:42.086Z,1
2022-08-19T03:47:25.792Z,0
2022-08-19T03:49:09.491Z,1
2022-08-19T03:50:53.196Z,2
2022-08-19T03:52:36.898Z,0
2022-08-19T03:54:20.593Z,1
2022-08-19T03:56:04.298Z,1
2022-08-19T03:57:48.009Z,1
2022-08-19T03:59:31.707Z,2
2022-08-19T04:01:15.409Z,1
2022-08-19T04:02:59.105Z,1
2022-08-19T04:04:42.830Z,2
2022-08-19T04:06:26.523Z,1
2022-08-19T04:08:10.213Z,2
2022-08-19T04:09:53.918Z,3
2022-08-19T04:11:37.653Z,3
2022-08-19T04:13:21.321Z,4
2022-08-19T04:15:05.029Z,4
2022-08-19T04:18:32.443Z,6
2022-08-19T04:20:16.140Z,7
2022-08-19T04:21:59.844Z,9
2022-08-19T04:23:43.554Z,11
2022-08-19T04:25:27.251Z,13
2022-08-19T04:27:10.941Z,15
2022-08-19T04:28:54.648Z,17
2022-08-19T04:30:38.358Z,20
2022-08-19T04:32:22.052Z,21
2022-08-19T04:34:05.757Z,24
2022-08-19T04:35:49.460Z,26
2022-08-19T04:37:33.156Z,28
2022-08-19T04:39:16.866Z,30
2022-08-19T04:41:00.588Z,30
2022-08-19T04:42:44.271Z,31
2022-08-19T04:44:27.995Z,32
2022-08-19T04:46:11.663Z,34
2022-08-19T04:47:55.377Z,35
2022-08-19T04:49:39.069Z,36
2022-08-19T04:51:22.773Z,36
2022-08-19T04:53:06.496Z,37
2022-08-19T04:54:50.181Z,39
2022-08-19T04:56:33.880Z,44
2022-08-19T04:58:17.588Z,49
2022-08-19T05:00:01.283Z,55
2022-08-19T05:01:44.990Z,61
2022-08-19T05:03:28.697Z,68
2022-08-19T05:05:12.391Z,75
2022-08-19T05:06:56.097Z,79
2022-08-19T05:08:39.792Z,85
2022-08-19T05:10:23.498Z,87
2022-08-19T05:12:07.205Z,87
2022-08-19T05:13:50.906Z,90
2022-08-19T05:15:34.604Z,93
2022-08-19T05:17:18.310Z,93
2022-08-19T05:19:02.019Z,96
2022-08-19T05:20:45.717Z,99
2022-08-19T05:22:29.410Z,101
2022-08-19T05:24:13.114Z,99
2022-08-19T05:25:56.815Z,95
2022-08-19T05:27:40.514Z,90
2022-08-19T05:29:24.218Z,89
2022-08-19T05:31:07.924Z,90
2022-08-19T05:32:51.618Z,94
2022-08-19T05:34:35.326Z,95
2022-08-19T05:36:19.020Z,93
2022-08-19T05:38:02.733Z,92
2022-08-19T05:39:46.430Z,95
2022-08-19T05:41:30.130Z,96
2022-08-19T05:43:13.839Z,99
2022-08-19T05:44:57.540Z,103
2022-08-19T05:46:41.232Z,116
2022-08-19T05:48:24.944Z,115
2022-08-19T05:50:08.645Z,113
2022-08-19T05:51:52.348Z,114
2022-08-19T05:53:36.045Z,118
2022-08-19T05:55:19.757Z,123
2022-08-19T05:57:03.444Z,130
2022-08-19T06:00:30.849Z,140
2022-08-19T06:02:14.550Z,130
2022-08-19T06:03:58.259Z,128
2022-08-19T06:05:41.950Z,126
2022-08-19T06:07:25.656Z,122
2022-08-19T06:09:09.361Z,126
2022-08-19T06:10:53.062Z,129
2022-08-19T06:12:36.767Z,130
2022-08-19T06:14:20.464Z,136
2022-08-19T06:16:04.173Z,145
2022-08-19T06:17:47.869Z,151
2022-08-19T06:19:31.571Z,154
2022-08-19T06:21:15.270Z,157
2022-08-19T06:22:58.980Z,159
2022-08-19T06:24:42.677Z,160
2022-08-19T06:26:26.381Z,163
2022-08-19T06:28:10.081Z,161
2022-08-19T06:29:53.789Z,160
2022-08-19T06:31:37.487Z,158
2022-08-19T06:33:21.184Z,155
2022-08-19T06:35:04.895Z,155
2022-08-19T06:36:48.604Z,156
2022-08-19T06:38:32.292Z,160
2022-08-19T06:40:16.000Z,158
2022-08-19T06:41:59.698Z,158
2022-08-19T06:43:43.405Z,161
2022-08-19T06:45:27.111Z,163
2022-08-19T06:47:10.802Z,169
2022-08-19T06:48:54.508Z,173
2022-08-19T06:50:38.212Z,175
2022-08-19T06:52:21.912Z,175
2022-08-19T06:55:49.313Z,172
2022-08-19T06:57:33.017Z,170
2022-08-19T06:59:16.725Z,162
2022-08-19T07:01:00.423Z,157
2022-08-19T07:02:44.125Z,155
2022-08-19T07:04:27.832Z,156
2022-08-19T07:06:11.530Z,150
2022-08-19T07:07:55.240Z,142
2022-08-19T07:09:38.938Z,139
2022-08-19T07:11:22.635Z,141
2022-08-19T07:13:06.342Z,147
2022-08-19T07:14:50.034Z,156
2022-08-19T07:16:33.741Z,157
2022-08-19T07:18:17.447Z,151
2022-08-19T07:20:01.161Z,145
2022-08-19T07:21:44.845Z,141
2022-08-19T07:23:28.544Z,136
2022-08-19T07:25:12.250Z,127
2022-08-19T07:26:55.956Z,120
2022-08-19T07:28:39.645Z,122
2022-08-19T07:30:23.358Z,125
2022-08-19T07:32:07.059Z,124
2022-08-19T07:33:50.754Z,126
2022-08-19T07:35:34.462Z,132
2022-08-19T07:37:18.166Z,141
2022-08-19T07:39:01.871Z,152
2022-08-19T07:40:45.573Z,161
2022-08-19T07:42:29.265Z,169
2022-08-19T07:44:12.970Z,175
2022-08-19T07:45:56.676Z,182
2022-08-19T07:47:40.368Z,183
2022-08-19T07:49:24.075Z,181
2022-08-19T07:51:07.783Z,185
2022-08-19T07:52:51.476Z,198
2022-08-19T07:54:35.184Z,208
2022-08-19T07:56:18.881Z,216
2022-08-19T07:58:02.586Z,230
2022-08-19T07:59:46.293Z,238
2022-08-19T08:01:29.991Z,251
2022-08-19T08:03:13.691Z,257
2022-08-19T08:04:57.398Z,256
2022-08-19T08:06:41.100Z,250
2022-08-19T08:08:24.799Z,218
2022-08-19T08:10:08.510Z,194
2022-08-19T08:11:52.201Z,176
2022-08-19T08:13:35.921Z,169
2022-08-19T08:15:19.605Z,168
2022-08-19T08:17:03.310Z,164
2022-08-19T08:18:47.016Z,157
2022-08-19T08:20:30.710Z,153
2022-08-19T08:22:14.420Z,161
2022-08-19T08:23:58.121Z,158
2022-08-19T08:25:41.818Z,155
2022-08-19T08:27:25.523Z,156
2022-08-19T08:29:09.224Z,164
2022-08-19T08:30:52.925Z,169
2022-08-19T08:32:36.632Z,181
2022-08-19T08:34:20.325Z,207
2022-08-19T08:36:04.031Z,213
2022-08-19T08:37:47.744Z,215
2022-08-19T08:39:31.434Z,234
2022-08-19T08:41:15.129Z,251
2022-08-19T08:42:58.833Z,257
2022-08-19T08:44:42.542Z,255
2022-08-19T08:46:26.245Z,258
2022-08-19T08:48:09.941Z,266
2022-08-19T08:49:53.650Z,288
2022-08-19T08:51:37.346Z,337
2022-08-19T08:53:21.045Z,415
2022-08-19T08:55:04.757Z,495
2022-08-19T08:56:48.456Z,525
2022-08-19T08:58:32.156Z,517
2022-08-19T09:00:15.860Z,518
2022-08-19T09:01:59.555Z,518
2022-08-19T09:03:43.259Z,499
2022-08-19T09:05:26.965Z,427
2022-08-19T09:07:10.663Z,396
2022-08-19T09:08:54.364Z,372
2022-08-19T09:10:38.075Z,392
2022-08-19T09:12:21.766Z,426
2022-08-19T09:14:05.493Z,402
2022-08-19T09:15:49.176Z,379
2022-08-19T09:17:32.878Z,361
2022-08-19T09:19:16.576Z,388
2022-08-19T09:21:00.273Z,425
2022-08-19T09:22:43.983Z,460
2022-08-19T09:24:27.692Z,495
2022-08-19T09:26:11.379Z,526
2022-08-19T09:27:55.087Z,547
2022-08-19T09:29:38.788Z,541
2022-08-19T09:31:22.492Z,510
2022-08-19T09:33:06.198Z,488
2022-08-19T09:34:49.900Z,485
2022-08-19T09:36:33.608Z,504
2022-08-19T09:38:17.307Z,526
2022-08-19T09:40:01.004Z,543
2022-08-19T09:41:44.712Z,541
2022-08-19T09:43:28.422Z,531
2022-08-19T09:45:12.117Z,508
2022-08-19T09:46:55.831Z,493
2022-08-19T09:48:39.538Z,475
2022-08-19T09:50:23.217Z,461
2022-08-19T09:52:06.920Z,449
2022-08-19T09:53:50.621Z,439
2022-08-19T09:55:34.332Z,431
2022-08-19T09:57:18.026Z,417
2022-08-19T09:59:01.736Z,402
2022-08-19T10:00:45.440Z,388
2022-08-19T10:02:29.142Z,384
2022-08-19T10:04:12.843Z,392
2022-08-19T10:05:56.553Z,408
2022-08-19T10:07:40.245Z,434
2022-08-19T10:09:23.948Z,447
2022-08-19T10:11:07.649Z,438
2022-08-19T10:12:51.347Z,427
2022-08-19T10:14:35.059Z,423
2022-08-19T10:16:18.754Z,433
2022-08-19T10:18:02.454Z,435
2022-08-19T10:19:46.155Z,429
2022-08-19T10:21:29.859Z,436
2022-08-19T10:23:13.559Z,444
2022-08-19T10:24:57.269Z,454
2022-08-19T10:26:40.966Z,466
2022-08-19T10:28:24.670Z,480
2022-08-19T10:30:08.376Z,500
2022-08-19T10:31:52.073Z,529
2022-08-19T10:33:35.778Z,556
2022-08-19T10:35:19.480Z,584
2022-08-19T10:37:03.176Z,603
2022-08-19T10:38:46.883Z,595
2022-08-19T10:40:30.588Z,573
2022-08-19T10:42:14.285Z,572
2022-08-19T10:43:57.992Z,589
2022-08-19T10:45:41.687Z,597
2022-08-19T10:47:25.390Z,588
2022-08-19T10:49:09.102Z,591
2022-08-19T10:50:52.793Z,593
2022-08-19T10:52:36.502Z,601
2022-08-19T10:54:20.210Z,614
2022-08-19T10:56:03.901Z,618
2022-08-19T10:57:47.606Z,613
2022-08-19T10:59:31.308Z,606
2022-08-19T11:01:15.021Z,587
2022-08-19T11:02:58.718Z,571
2022-08-19T11:04:42.411Z,563
2022-08-19T11:06:26.119Z,564
2022-08-19T11:08:09.816Z,578
2022-08-19T11:09:53.515Z,597
2022-08-19T11:11:37.224Z,620
2022-08-19T11:13:20.927Z,631
2022-08-19T11:15:04.627Z,623
2022-08-19T11:16:48.332Z,597
2022-08-19T11:18:32.027Z,572
2022-08-19T11:20:15.736Z,565
2022-08-19T11:21:59.454Z,582
2022-08-19T11:23:43.136Z,619
2022-08-19T11:25:26.840Z,662
2022-08-19T11:27:10.542Z,702
2022-08-19T11:28:54.242Z,706
2022-08-19T11:30:37.945Z,683
2022-08-19T11:32:21.649Z,657
2022-08-19T11:34:05.350Z,649
2022-08-19T11:35:49.059Z,660
2022-08-19T11:37:32.747Z,673
2022-08-19T11:39:16.453Z,674
2022-08-19T11:41:00.157Z,657
2022-08-19T11:42:43.868Z,638
2022-08-19T11:44:27.562Z,620
2022-08-19T11:46:11.262Z,608
2022-08-19T11:47:54.965Z,598
2022-08-19T11:49:38.673Z,590
2022-08-19T11:51:22.367Z,590
2022-08-19T11:53:06.069Z,594
2022-08-19T11:54:49.776Z,599
2022-08-19T11:56:33.484Z,609
2022-08-19T11:58:17.184Z,632
2022-08-19T12:00:00.881Z,674
2022-08-19T12:01:44.589Z,737
2022-08-19T12:03:28.292Z,747
2022-08-19T12:05:11.988Z,748
2022-08-19T12:06:55.687Z,748
2022-08-19T12:08:39.396Z,746
2022-08-19T12:10:23.092Z,735
2022-08-19T12:12:06.796Z,689
2022-08-19T12:13:50.500Z,652
2022-08-19T12:15:34.205Z,630
2022-08-19T12:17:17.910Z,616
2022-08-19T12:19:01.605Z,600
2022-08-19T12:20:45.309Z,592
2022-08-19T12:22:29.011Z,591
2022-08-19T12:24:12.709Z,593
2022-08-19T12:25:56.414Z,584
2022-08-19T12:27:40.131Z,556
2022-08-19T12:29:23.818Z,548
2022-08-19T12:31:07.530Z,575
2022-08-19T12:32:51.221Z,602
2022-08-19T12:34:34.927Z,603
2022-08-19T12:36:18.627Z,577
2022-08-19T12:38:02.330Z,530
2022-08-19T12:39:46.034Z,493
2022-08-19T12:41:29.740Z,459
2022-08-19T12:43:13.435Z,431
2022-08-19T12:44:57.144Z,409
2022-08-19T12:46:40.840Z,398
2022-08-19T12:48:24.544Z,396
2022-08-19T12:50:08.243Z,405
2022-08-19T12:51:51.943Z,427
2022-08-19T12:53:35.644Z,448
2022-08-19T12:55:19.356Z,469
2022-08-19T12:57:03.052Z,491
2022-08-19T12:58:46.752Z,512
2022-08-19T13:00:30.449Z,525
2022-08-19T13:02:14.159Z,514
2022-08-19T13:03:57.861Z,475
2022-08-19T13:05:41.568Z,449
2022-08-19T13:07:25.261Z,445
2022-08-19T13:09:08.968Z,462
2022-08-19T13:10:52.666Z,492
2022-08-19T13:12:36.368Z,516
2022-08-19T13:14:20.071Z,526
2022-08-19T13:16:03.774Z,534
2022-08-19T13:17:47.480Z,544
2022-08-19T13:19:31.173Z,545
2022-08-19T13:21:14.873Z,536
2022-08-19T13:22:58.611Z,543
2022-08-19T13:24:42.284Z,560
2022-08-19T13:26:25.990Z,563
2022-08-19T13:28:09.688Z,546
2022-08-19T13:29:53.384Z,507
2022-08-19T13:31:37.101Z,450
2022-08-19T13:33:20.789Z,427
2022-08-19T13:35:04.496Z,451
2022-08-19T13:36:48.202Z,474
2022-08-19T13:38:31.898Z,479
2022-08-19T13:40:15.598Z,487
2022-08-19T13:41:59.303Z,497
2022-08-19T13:43:43.000Z,495
2022-08-19T13:45:26.707Z,481
2022-08-19T13:47:10.406Z,477
2022-08-19T13:48:54.111Z,478
2022-08-19T13:50:37.810Z,472
2022-08-19T13:52:21.520Z,437
2022-08-19T13:54:05.215Z,393
2022-08-19T13:55:48.923Z,360
2022-08-19T13:57:32.654Z,348
2022-08-19T13:59:16.320Z,342
2022-08-19T14:01:00.045Z,335
2022-08-19T14:02:43.738Z,345
2022-08-19T14:04:27.432Z,352
2022-08-19T14:06:11.130Z,355
2022-08-19T14:07:54.840Z,376
2022-08-19T14:09:38.546Z,401
2022-08-19T14:11:22.244Z,434
2022-08-19T14:13:05.941Z,481
2022-08-19T14:14:49.644Z,529
2022-08-19T14:16:33.353Z,576
2022-08-19T14:18:17.057Z,621
2022-08-19T14:20:00.755Z,670
2022-08-19T14:21:44.467Z,710
2022-08-19T14:23:28.169Z,745
2022-08-19T14:25:11.869Z,748
2022-08-19T14:26:55.563Z,747
2022-08-19T14:28:39.266Z,747
2022-08-19T14:30:22.972Z,747
2022-08-19T14:32:06.671Z,747
2022-08-19T14:33:50.369Z,747
2022-08-19T14:35:34.074Z,747
2022-08-19T14:37:17.779Z,747
2022-08-19T14:39:01.475Z,747
2022-08-19T14:40:45.181Z,748
2022-08-19T14:42:28.877Z,748
2022-08-19T14:44:12.578Z,747
2022-08-19T14:45:56.288Z,747
2022-08-19T14:47:39.981Z,747
2022-08-19T14:49:23.685Z,747
2022-08-19T14:51:07.402Z,748
2022-08-19T14:54:34.791Z,747
2022-08-19T14:56:18.489Z,748
2022-08-19T14:58:02.198Z,747
2022-08-19T14:59:45.900Z,747
2022-08-19T15:01:29.599Z,714
2022-08-19T15:03:13.306Z,710
2022-08-19T15:04:57.014Z,724
2022-08-19T15:06:40.699Z,727
2022-08-19T15:08:24.407Z,747
2022-08-19T15:10:08.118Z,742
2022-08-19T15:11:51.821Z,747
2022-08-19T15:13:35.524Z,747
2022-08-19T15:15:19.212Z,747
2022-08-19T15:17:02.922Z,747
2022-08-19T15:18:46.633Z,747
2022-08-19T15:20:30.326Z,748
2022-08-19T15:22:14.031Z,747
2022-08-19T15:23:57.735Z,746
2022-08-19T15:25:41.432Z,747
2022-08-19T15:27:25.139Z,748
2022-08-19T15:29:08.836Z,748
2022-08-19T15:30:52.543Z,746
2022-08-19T15:32:36.250Z,748
2022-08-19T15:34:19.951Z,747
2022-08-19T15:36:03.655Z,747
2022-08-19T15:37:47.364Z,748
2022-08-19T15:39:31.055Z,748
2022-08-19T15:41:14.762Z,748
2022-08-19T15:42:58.466Z,746
2022-08-19T15:44:42.160Z,747
2022-08-19T15:46:25.864Z,747
2022-08-19T15:48:09.565Z,747
2022-08-19T15:49:53.269Z,747
2022-08-19T15:51:36.994Z,748
2022-08-19T15:53:20.666Z,748
2022-08-19T15:55:04.372Z,747
2022-08-19T15:56:48.078Z,747
2022-08-19T15:58:31.772Z,747
2022-08-19T16:00:15.478Z,747
2022-08-19T16:01:59.188Z,738
2022-08-19T16:03:42.888Z,748
2022-08-19T16:05:26.596Z,747
2022-08-19T16:07:10.289Z,747
2022-08-19T16:08:53.992Z,747
2022-08-19T16:10:37.694Z,748
2022-08-19T16:12:21.385Z,748
2022-08-19T16:14:05.095Z,747
2022-08-19T16:15:48.797Z,738
2022-08-19T16:17:32.500Z,748
2022-08-19T16:19:16.198Z,747
2022-08-19T16:20:59.901Z,748
2022-08-19T16:22:43.605Z,748
2022-08-19T16:24:27.314Z,748
2022-08-19T16:26:11.008Z,747
2022-08-19T16:27:54.711Z,746
2022-08-19T16:29:38.415Z,747
2022-08-19T16:31:22.106Z,748
2022-08-19T16:33:05.844Z,747
2022-08-19T16:34:49.517Z,730
2022-08-19T16:36:33.229Z,655
2022-08-19T16:38:16.923Z,582
2022-08-19T16:40:00.620Z,509
2022-08-19T16:41:44.318Z,458
2022-08-19T16:43:28.025Z,427
2022-08-19T16:45:11.724Z,420
2022-08-19T16:46:55.426Z,400
2022-08-19T16:48:39.136Z,407
2022-08-19T16:50:22.832Z,390
2022-08-19T16:52:06.544Z,372
2022-08-19T16:53:50.243Z,364
2022-08-19T16:55:33.947Z,344
2022-08-19T16:57:17.651Z,322
2022-08-19T16:59:01.345Z,299
2022-08-19T17:00:45.051Z,281
2022-08-19T17:02:28.750Z,262
2022-08-19T17:04:12.449Z,243
2022-08-19T17:05:56.150Z,223
2022-08-19T17:07:39.859Z,205
2022-08-19T17:09:23.560Z,190
2022-08-19T17:11:07.271Z,180
2022-08-19T17:12:50.960Z,179
2022-08-19T17:14:34.662Z,181
2022-08-19T17:16:18.372Z,189
2022-08-19T17:18:02.061Z,201
2022-08-19T17:19:45.770Z,219
2022-08-19T17:21:29.478Z,245
2022-08-19T17:23:13.173Z,239
2022-08-19T17:24:56.880Z,300
2022-08-19T17:26:40.578Z,362
2022-08-19T17:28:24.287Z,746
2022-08-19T17:30:07.988Z,747
2022-08-19T17:31:51.675Z,747
2022-08-19T17:33:35.383Z,747
2022-08-19T17:35:19.095Z,747
2022-08-19T17:37:02.797Z,748
2022-08-19T17:38:46.488Z,748
2022-08-19T17:40:30.207Z,722
2022-08-19T17:42:13.895Z,599
2022-08-19T17:43:57.605Z,597
2022-08-19T17:45:41.297Z,405
2022-08-19T17:47:25.001Z,385
2022-08-19T17:49:08.703Z,382
2022-08-19T17:50:52.408Z,394
2022-08-19T17:52:36.104Z,404
2022-08-19T17:54:19.812Z,395
2022-08-19T17:56:03.508Z,375
2022-08-19T17:57:47.213Z,346
2022-08-19T17:59:30.916Z,310
2022-08-19T18:01:14.621Z,268
2022-08-19T18:02:58.325Z,232
2022-08-19T18:04:42.024Z,202
2022-08-19T18:06:25.728Z,176
2022-08-19T18:08:09.433Z,160
2022-08-19T18:09:53.133Z,149
2022-08-19T18:11:36.837Z,140
2022-08-19T18:13:20.541Z,128
2022-08-19T18:15:04.243Z,108
2022-08-19T18:16:47.951Z,88
2022-08-19T18:18:31.647Z,73
2022-08-19T18:20:15.346Z,58
2022-08-19T18:21:59.051Z,50
2022-08-19T18:23:42.761Z,45
2022-08-19T18:25:26.458Z,41
2022-08-19T18:27:10.168Z,38
2022-08-19T18:28:53.861Z,36
2022-08-19T18:30:37.575Z,32
2022-08-19T18:32:21.268Z,28
2022-08-19T18:34:04.968Z,23
2022-08-19T18:35:48.671Z,19
2022-08-19T18:37:32.362Z,13
2022-08-19T18:39:16.069Z,9
2022-08-19T18:40:59.775Z,6
2022-08-19T18:42:43.477Z,4
2022-08-19T18:44:27.181Z,3
2022-08-19T18:46:10.872Z,4
2022-08-19T18:47:54.576Z,3
2022-08-19T18:49:38.280Z,3
2022-08-19T18:51:21.981Z,2
2022-08-19T18:53:05.688Z,2
2022-08-19T18:54:49.387Z,2
2022-08-19T18:56:33.089Z,1
2022-08-19T18:58:16.799Z,1
2022-08-19T19:00:00.508Z,1
2022-08-19T19:01:44.196Z,1
2022-08-19T19:03:27.907Z,1
2022-08-19T19:05:11.596Z,2
2022-08-19T19:06:55.303Z,1
2022-08-19T19:08:39.005Z,0
2022-08-19T19:10:22.703Z,0
2022-08-19T19:12:06.412Z,1
2022-08-19T19:13:50.114Z,1
2022-08-19T19:15:33.811Z,1
2022-08-19T19:17:17.515Z,1
2022-08-19T19:19:01.213Z,1
2022-08-19T19:20:44.916Z,0
2022-08-19T19:22:28.629Z,25
2022-08-19T19:24:12.326Z,23
2022-08-19T19:25:56.027Z,23
2022-08-19T19:27:39.729Z,22
2022-08-19T19:29:23.432Z,22
2022-08-19T19:31:07.134Z,22
2022-08-19T19:32:50.835Z,22
2022-08-19T19:34:34.555Z,22
2022-08-19T19:36:18.245Z,22
2022-08-19T19:38:01.941Z,22
2022-08-19T19:39:45.648Z,23
2022-08-19T19:41:29.351Z,22
2022-08-19T19:43:13.046Z,22
2022-08-19T19:44:56.749Z,22
2022-08-19T19:46:40.456Z,22
2022-08-19T19:48:24.159Z,23
2022-08-19T19:50:07.864Z,22
2022-08-19T19:51:51.558Z,23
2022-08-19T19:53:35.265Z,22
2022-08-19T19:55:18.965Z,22
2022-08-19T19:57:02.671Z,22
2022-08-19T19:58:46.374Z,22
2022-08-19T20:00:30.074Z,22
2022-08-19T20:02:13.778Z,23
2022-08-19T20:03:57.485Z,22
2022-08-19T20:05:41.179Z,23
2022-08-19T20:07:24.886Z,22
2022-08-19T20:09:08.590Z,22
2022-08-19T20:10:52.284Z,21
2022-08-19T20:12:35.991Z,23
2022-08-19T20:14:19.697Z,22
2022-08-19T20:16:03.396Z,23
2022-08-19T20:17:47.098Z,22
2022-08-19T20:19:30.797Z,23
2022-08-19T20:21:14.503Z,22
2022-08-19T20:22:58.208Z,0
2022-08-19T20:24:41.902Z,1
2022-08-19T20:26:25.621Z,0
2022-08-19T20:28:09.321Z,1
2022-08-19T20:29:53.015Z,1
2022-08-19T20:31:36.720Z,1
2022-08-19T20:33:20.419Z,1
2022-08-19T20:35:04.118Z,1
2022-08-19T20:36:47.827Z,1
2022-08-19T20:38:31.526Z,9
2022-08-19T20:40:15.226Z,10
2022-08-19T20:41:58.932Z,9
2022-08-19T20:43:42.635Z,9
2022-08-19T20:45:26.337Z,9
2022-08-19T20:47:10.037Z,9
2022-08-19T20:48:53.739Z,9
2022-08-19T20:50:37.438Z,9
2022-08-19T20:52:21.136Z,14
2022-08-19T20:54:04.845Z,15
2022-08-19T20:55:48.545Z,15
2022-08-19T20:57:32.248Z,15
2022-08-19T20:59:15.951Z,14
2022-08-19T21:00:59.648Z,14
2022-08-19T21:02:43.347Z,15
2022-08-19T21:04:27.055Z,14
2022-08-19T21:06:10.754Z,14
2022-08-19T21:07:54.462Z,14
2022-08-19T21:09:38.160Z,14
2022-08-19T21:11:21.860Z,14
2022-08-19T21:13:05.571Z,14
2022-08-19T21:14:49.276Z,14
2022-08-19T21:16:32.974Z,14
2022-08-19T21:18:16.681Z,15
2022-08-19T21:20:00.374Z,14
2022-08-19T21:21:44.082Z,14
2022-08-19T21:23:27.785Z,14
2022-08-19T21:25:11.495Z,14
2022-08-19T21:26:55.193Z,14
2022-08-19T21:28:38.886Z,15
2022-08-19T21:30:22.617Z,13
2022-08-19T21:32:06.298Z,14
2022-08-19T21:33:50.008Z,14
2022-08-19T21:35:33.712Z,14
2022-08-19T21:37:17.407Z,15
2022-08-19T21:39:01.093Z,14
2022-08-19T21:40:44.806Z,14
2022-08-19T21:42:28.502Z,14
2022-08-19T21:44:12.204Z,14
2022-08-19T21:45:55.931Z,14
2022-08-19T21:47:39.610Z,14
2022-08-19T21:49:23.318Z,14
2022-08-19T21:51:07.017Z,14
2022-08-19T21:52:50.711Z,14
2022-08-19T21:54:34.415Z,14
2022-08-19T21:56:18.123Z,15
2022-08-19T21:58:01.820Z,14
2022-08-19T21:59:45.529Z,14
2022-08-19T22:01:29.228Z,10
2022-08-19T22:03:12.935Z,14
2022-08-19T22:04:56.637Z,14
2022-08-19T22:06:40.331Z,14
2022-08-19T22:08:24.039Z,14
2022-08-19T22:10:07.745Z,14
2022-08-19T22:11:51.441Z,14
2022-08-19T22:13:35.173Z,14
2022-08-19T22:15:18.845Z,14
2022-08-19T22:17:02.550Z,14
2022-08-19T22:18:46.260Z,14
2022-08-19T22:20:29.951Z,14
2022-08-19T22:22:13.658Z,14
2022-08-19T22:23:57.362Z,14
2022-08-19T22:25:41.063Z,14
2022-08-19T22:27:24.760Z,14
2022-08-19T22:29:08.455Z,14
2022-08-19T22:30:52.162Z,14
2022-08-19T22:32:35.869Z,14
2022-08-19T22:34:19.564Z,14
2022-08-19T22:36:03.278Z,14
2022-08-19T22:37:46.984Z,13
2022-08-19T22:39:30.671Z,14
2022-08-19T22:41:14.374Z,14
2022-08-19T22:42:58.080Z,14
2022-08-19T22:44:41.779Z,14
2022-08-19T22:46:25.484Z,15
2022-08-19T22:48:09.183Z,14
2022-08-19T22:49:52.888Z,13
2022-08-19T22:51:36.595Z,15
2022-08-19T22:53:20.284Z,14
2022-08-19T22:55:03.993Z,14
2022-08-19T22:56:47.694Z,15
2022-08-19T22:58:31.397Z,14
2022-08-19T23:00:15.100Z,14
2022-08-19T23:01:58.796Z,14
2022-08-19T23:03:42.505Z,14
2022-08-19T23:05:26.208Z,14
2022-08-19T23:07:09.905Z,14
2022-08-19T23:08:53.606Z,14
2022-08-19T23:10:37.316Z,14
2022-08-19T23:12:21.017Z,14
2022-08-19T23:14:04.722Z,14
2022-08-19T23:15:48.417Z,13
2022-08-19T23:17:32.117Z,14
2022-08-19T23:19:15.821Z,14
2022-08-19T23:20:59.516Z,14
2022-08-19T23:22:43.222Z,14
2022-08-19T23:24:26.932Z,14
2022-08-19T23:26:10.629Z,14
2022-08-19T23:27:54.332Z,14
2022-08-19T23:29:38.027Z,14
2022-08-19T23:31:21.740Z,13
2022-08-19T23:33:05.438Z,14
2022-08-19T23:34:49.136Z,13
2022-08-19T23:36:32.848Z,14
2022-08-19T23:38:16.547Z,14
2022-08-19T23:40:00.233Z,14
2022-08-19T23:41:43.942Z,14
2022-08-19T23:43:27.653Z,14
2022-08-19T23:45:11.358Z,14
2022-08-19T23:46:55.061Z,14
2022-08-19T23:48:38.754Z,14
2022-08-19T23:50:22.458Z,14
2022-08-19T23:52:06.166Z,13
2022-08-19T23:53:49.856Z,13
2022-08-19T23:55:33.565Z,15
2022-08-19T23:57:17.267Z,14
2022-08-19T23:59:00.967Z,14
